sensor_id;sensor_type;location;lat;lon;timestamp;pressure;altitude;pressure_sealevel;temperature
24714;BMP280;12820;51.580;5.010;2022-11-15T00:01:54;100782.88;;;10.57
24714;BMP280;12820;51.580;5.010;2022-11-15T00:07:14;100789.53;;;10.58
24714;BMP280;12820;51.580;5.010;2022-11-15T00:12:54;100786.97;;;10.62
24714;BMP280;12820;51.580;5.010;2022-11-15T00:18:14;100780.22;;;10.64
24714;BMP280;12820;51.580;5.010;2022-11-15T00:23:34;100779.38;;;10.66
24714;BMP280;12820;51.580;5.010;2022-11-15T00:28:55;100769.25;;;10.69
24714;BMP280;12820;51.580;5.010;2022-11-15T00:34:15;100770.00;;;10.74
24714;BMP280;12820;51.580;5.010;2022-11-15T00:39:35;100764.09;;;10.77
24714;BMP280;12820;51.580;5.010;2022-11-15T00:44:56;100761.53;;;10.81
24714;BMP280;12820;51.580;5.010;2022-11-15T00:50:16;100763.13;;;10.85
24714;BMP280;12820;51.580;5.010;2022-11-15T00:55:36;100748.81;;;10.90
24714;BMP280;12820;51.580;5.010;2022-11-15T01:01:05;100753.78;;;10.93
24714;BMP280;12820;51.580;5.010;2022-11-15T01:06:26;100763.72;;;10.99
24714;BMP280;12820;51.580;5.010;2022-11-15T01:11:47;100758.63;;;11.03
24714;BMP280;12820;51.580;5.010;2022-11-15T01:17:07;100757.69;;;11.08
24714;BMP280;12820;51.580;5.010;2022-11-15T01:22:27;100746.72;;;11.12
24714;BMP280;12820;51.580;5.010;2022-11-15T01:27:47;100748.28;;;11.19
24714;BMP280;12820;51.580;5.010;2022-11-15T01:33:07;100751.53;;;11.24
24714;BMP280;12820;51.580;5.010;2022-11-15T01:38:28;100745.59;;;11.29
24714;BMP280;12820;51.580;5.010;2022-11-15T01:43:56;100739.59;;;11.35
24714;BMP280;12820;51.580;5.010;2022-11-15T01:49:20;100727.75;;;11.42
24714;BMP280;12820;51.580;5.010;2022-11-15T01:54:41;100719.19;;;11.49
24714;BMP280;12820;51.580;5.010;2022-11-15T02:00:03;100719.00;;;11.58
24714;BMP280;12820;51.580;5.010;2022-11-15T02:05:24;100718.91;;;11.64
24714;BMP280;12820;51.580;5.010;2022-11-15T02:10:44;100705.34;;;11.71
24714;BMP280;12820;51.580;5.010;2022-11-15T02:16:27;100705.19;;;11.76
24714;BMP280;12820;51.580;5.010;2022-11-15T02:22:00;100705.03;;;11.85
24714;BMP280;12820;51.580;5.010;2022-11-15T02:27:31;100687.25;;;11.91
24714;BMP280;12820;51.580;5.010;2022-11-15T02:33:01;100681.19;;;11.99
24714;BMP280;12820;51.580;5.010;2022-11-15T02:38:31;100691.00;;;12.09
24714;BMP280;12820;51.580;5.010;2022-11-15T02:44:27;100682.47;;;12.16
24714;BMP280;12820;51.580;5.010;2022-11-15T02:49:48;100675.50;;;12.27
24714;BMP280;12820;51.580;5.010;2022-11-15T03:00:58;100668.44;;;12.41
24714;BMP280;12820;51.580;5.010;2022-11-15T03:11:43;100675.69;;;12.52
24714;BMP280;12820;51.580;5.010;2022-11-15T03:22:29;100667.97;;;12.61
24714;BMP280;12820;51.580;5.010;2022-11-15T03:27:54;100667.06;;;12.63
24714;BMP280;12820;51.580;5.010;2022-11-15T03:33:15;100670.38;;;12.65
24714;BMP280;12820;51.580;5.010;2022-11-15T03:38:35;100656.06;;;12.66
24714;BMP280;12820;51.580;5.010;2022-11-15T03:43:57;100651.03;;;12.66
24714;BMP280;12820;51.580;5.010;2022-11-15T03:49:21;100651.88;;;12.65
24714;BMP280;12820;51.580;5.010;2022-11-15T03:54:47;100662.84;;;12.64
24714;BMP280;12820;51.580;5.010;2022-11-15T04:00:07;100660.34;;;12.62
24714;BMP280;12820;51.580;5.010;2022-11-15T04:05:28;100667.97;;;12.61
24714;BMP280;12820;51.580;5.010;2022-11-15T04:10:50;100665.38;;;12.62
24714;BMP280;12820;51.580;5.010;2022-11-15T04:16:11;100664.56;;;12.62
24714;BMP280;12820;51.580;5.010;2022-11-15T04:21:31;100667.06;;;12.63
24714;BMP280;12820;51.580;5.010;2022-11-15T04:27:11;100669.56;;;12.63
24714;BMP280;12820;51.580;5.010;2022-11-15T04:32:32;100674.59;;;12.65
24714;BMP280;12820;51.580;5.010;2022-11-15T04:37:53;100679.56;;;12.66
24714;BMP280;12820;51.580;5.010;2022-11-15T04:43:12;100671.94;;;12.69
24714;BMP280;12820;51.580;5.010;2022-11-15T04:48:32;100668.50;;;12.72
24714;BMP280;12820;51.580;5.010;2022-11-15T04:53:52;100665.94;;;12.75
24714;BMP280;12820;51.580;5.010;2022-11-15T04:59:12;100665.84;;;12.78
24714;BMP280;12820;51.580;5.010;2022-11-15T05:04:32;100667.41;;;12.81
24714;BMP280;12820;51.580;5.010;2022-11-15T05:09:52;100661.50;;;12.82
24714;BMP280;12820;51.580;5.010;2022-11-15T05:15:13;100660.66;;;12.83
24714;BMP280;12820;51.580;5.010;2022-11-15T05:20:33;100659.78;;;12.84
24714;BMP280;12820;51.580;5.010;2022-11-15T05:25:53;100660.56;;;12.86
24714;BMP280;12820;51.580;5.010;2022-11-15T05:31:14;100661.34;;;12.88
24714;BMP280;12820;51.580;5.010;2022-11-15T05:36:38;100663.03;;;12.88
24714;BMP280;12820;51.580;5.010;2022-11-15T05:42:07;100668.94;;;12.88
24714;BMP280;12820;51.580;5.010;2022-11-15T05:47:29;100672.28;;;12.89
24714;BMP280;12820;51.580;5.010;2022-11-15T05:52:49;100673.97;;;12.88
24714;BMP280;12820;51.580;5.010;2022-11-15T05:58:10;100680.69;;;12.89
24714;BMP280;12820;51.580;5.010;2022-11-15T06:03:30;100681.50;;;12.90
24714;BMP280;12820;51.580;5.010;2022-11-15T06:08:50;100673.97;;;12.88
24714;BMP280;12820;51.580;5.010;2022-11-15T06:14:10;100682.31;;;12.90
24714;BMP280;12820;51.580;5.010;2022-11-15T06:19:30;100684.81;;;12.90
24714;BMP280;12820;51.580;5.010;2022-11-15T06:24:52;100684.81;;;12.90
24714;BMP280;12820;51.580;5.010;2022-11-15T06:30:12;100691.53;;;12.91
24714;BMP280;12820;51.580;5.010;2022-11-15T06:35:33;100697.44;;;12.90
24714;BMP280;12820;51.580;5.010;2022-11-15T06:40:53;100696.63;;;12.90
24714;BMP280;12820;51.580;5.010;2022-11-15T06:46:13;100704.22;;;12.88
24714;BMP280;12820;51.580;5.010;2022-11-15T06:51:33;100705.06;;;12.89
24714;BMP280;12820;51.580;5.010;2022-11-15T06:56:53;100707.66;;;12.86
24714;BMP280;12820;51.580;5.010;2022-11-15T07:02:13;100706.81;;;12.85
24714;BMP280;12820;51.580;5.010;2022-11-15T07:07:33;100701.00;;;12.83
24714;BMP280;12820;51.580;5.010;2022-11-15T07:12:54;100709.41;;;12.82
24714;BMP280;12820;51.580;5.010;2022-11-15T07:18:14;100706.94;;;12.81
24714;BMP280;12820;51.580;5.010;2022-11-15T07:23:38;100709.44;;;12.81
24714;BMP280;12820;51.580;5.010;2022-11-15T07:28:58;100709.41;;;12.82
24714;BMP280;12820;51.580;5.010;2022-11-15T07:34:18;100711.09;;;12.83
24714;BMP280;12820;51.580;5.010;2022-11-15T07:39:38;100715.28;;;12.84
24714;BMP280;12820;51.580;5.010;2022-11-15T07:44:58;100720.31;;;12.84
24714;BMP280;12820;51.580;5.010;2022-11-15T07:50:18;100722.84;;;12.84
24714;BMP280;12820;51.580;5.010;2022-11-15T07:55:39;100722.88;;;12.83
24714;BMP280;12820;51.580;5.010;2022-11-15T08:01:02;100728.78;;;12.82
24714;BMP280;12820;51.580;5.010;2022-11-15T08:06:22;100697.66;;;12.83
24714;BMP280;12820;51.580;5.010;2022-11-15T08:11:42;100699.19;;;12.88
24714;BMP280;12820;51.580;5.010;2022-11-15T08:17:03;100703.28;;;12.92
24714;BMP280;12820;51.580;5.010;2022-11-15T08:22:23;100698.94;;;12.97
24714;BMP280;12820;51.580;5.010;2022-11-15T08:27:43;100700.53;;;13.01
24714;BMP280;12820;51.580;5.010;2022-11-15T08:33:03;100689.47;;;13.05
24714;BMP280;12820;51.580;5.010;2022-11-15T08:38:24;100691.84;;;13.11
24714;BMP280;12820;51.580;5.010;2022-11-15T08:43:44;100679.13;;;13.15
24714;BMP280;12820;51.580;5.010;2022-11-15T08:49:04;100672.31;;;13.18
24714;BMP280;12820;51.580;5.010;2022-11-15T08:54:24;100656.16;;;13.24
24714;BMP280;12820;51.580;5.010;2022-11-15T08:59:44;100658.66;;;13.24
24714;BMP280;12820;51.580;5.010;2022-11-15T09:05:05;100651.09;;;13.24
24714;BMP280;12820;51.580;5.010;2022-11-15T09:10:25;100653.63;;;13.24
24714;BMP280;12820;51.580;5.010;2022-11-15T09:15:45;100652.75;;;13.25
24714;BMP280;12820;51.580;5.010;2022-11-15T09:21:05;100656.13;;;13.25
24714;BMP280;12820;51.580;5.010;2022-11-15T09:26:25;100651.88;;;13.27
24714;BMP280;12820;51.580;5.010;2022-11-15T09:31:45;100644.19;;;13.30
24714;BMP280;12820;51.580;5.010;2022-11-15T09:37:05;100638.19;;;13.34
24714;BMP280;12820;51.580;5.010;2022-11-15T09:53:36;100635.16;;;13.51
24714;BMP280;12820;51.580;5.010;2022-11-15T10:04:02;100646.53;;;13.66
24714;BMP280;12820;51.580;5.010;2022-11-15T10:09:19;100630.16;;;13.77
24714;BMP280;12820;51.580;5.010;2022-11-15T10:14:25;100628.22;;;13.86
24714;BMP280;12820;51.580;5.010;2022-11-15T10:19:35;100610.06;;;14.01
24714;BMP280;12820;51.580;5.010;2022-11-15T10:24:41;100609.63;;;14.14
24714;BMP280;12820;51.580;5.010;2022-11-15T10:29:44;100592.72;;;14.16
24714;BMP280;12820;51.580;5.010;2022-11-15T10:34:46;100597.63;;;14.20
24714;BMP280;12820;51.580;5.010;2022-11-15T10:40:02;100592.53;;;14.22
24714;BMP280;12820;51.580;5.010;2022-11-15T10:45:08;100587.50;;;14.22
24714;BMP280;12820;51.580;5.010;2022-11-15T10:50:30;100574.75;;;14.24
24714;BMP280;12820;51.580;5.010;2022-11-15T10:55:32;100561.91;;;14.30
24714;BMP280;12820;51.580;5.010;2022-11-15T11:00:37;100564.91;;;14.41
24714;BMP280;12820;51.580;5.010;2022-11-15T11:05:40;100538.28;;;14.55
24714;BMP280;12820;51.580;5.010;2022-11-15T11:10:56;100532.53;;;14.74
24714;BMP280;12820;51.580;5.010;2022-11-15T11:16:20;100510.41;;;15.03
24714;BMP280;12820;51.580;5.010;2022-11-15T11:21:45;100503.09;;;15.60
24714;BMP280;12820;51.580;5.010;2022-11-15T11:37:14;100466.94;;;16.91
24714;BMP280;12820;51.580;5.010;2022-11-15T11:47:47;100433.72;;;17.81
24714;BMP280;12820;51.580;5.010;2022-11-15T12:03:28;100406.69;;;18.28
24714;BMP280;12820;51.580;5.010;2022-11-15T12:13:34;100395.66;;;18.44
24714;BMP280;12820;51.580;5.010;2022-11-15T12:18:38;100393.13;;;18.44
24714;BMP280;12820;51.580;5.010;2022-11-15T12:23:43;100385.72;;;18.40
24714;BMP280;12820;51.580;5.010;2022-11-15T12:28:51;100384.38;;;18.33
24714;BMP280;12820;51.580;5.010;2022-11-15T12:39:21;100366.13;;;18.10
24714;BMP280;12820;51.580;5.010;2022-11-15T12:49:44;100326.84;;;17.67
24714;BMP280;12820;51.580;5.010;2022-11-15T12:54:52;100333.50;;;17.53
24714;BMP280;12820;51.580;5.010;2022-11-15T12:59:58;100322.50;;;17.36
24714;BMP280;12820;51.580;5.010;2022-11-15T13:20:31;100293.13;;;16.80
24714;BMP280;12820;51.580;5.010;2022-11-15T13:30:41;100263.50;;;16.64
24714;BMP280;12820;51.580;5.010;2022-11-15T13:35:50;100269.63;;;16.60
24714;BMP280;12820;51.580;5.010;2022-11-15T13:40:52;100248.09;;;16.50
24714;BMP280;12820;51.580;5.010;2022-11-15T13:46:04;100240.00;;;16.42
24714;BMP280;12820;51.580;5.010;2022-11-15T13:51:23;100235.31;;;16.35
24714;BMP280;12820;51.580;5.010;2022-11-15T13:56:26;100223.94;;;16.25
24714;BMP280;12820;51.580;5.010;2022-11-15T14:01:28;100211.69;;;16.17
24714;BMP280;12820;51.580;5.010;2022-11-15T14:06:32;100201.16;;;16.07
24714;BMP280;12820;51.580;5.010;2022-11-15T14:11:33;100192.00;;;16.03
24714;BMP280;12820;51.580;5.010;2022-11-15T14:16:39;100179.50;;;16.00
24714;BMP280;12820;51.580;5.010;2022-11-15T14:32:22;100148.09;;;15.85
24714;BMP280;12820;51.580;5.010;2022-11-15T14:37:28;100145.78;;;15.81
24714;BMP280;12820;51.580;5.010;2022-11-15T14:42:29;100141.75;;;15.77
24714;BMP280;12820;51.580;5.010;2022-11-15T14:47:31;100127.72;;;15.70
24714;BMP280;12820;51.580;5.010;2022-11-15T14:52:33;100122.97;;;15.63
24714;BMP280;12820;51.580;5.010;2022-11-15T14:57:36;100119.88;;;15.56
24714;BMP280;12820;51.580;5.010;2022-11-15T15:02:37;100108.34;;;15.51
24714;BMP280;12820;51.580;5.010;2022-11-15T15:07:39;100107.66;;;15.47
24714;BMP280;12820;51.580;5.010;2022-11-15T15:12:40;100094.47;;;15.41
24714;BMP280;12820;51.580;5.010;2022-11-15T15:17:42;100100.66;;;15.34
24714;BMP280;12820;51.580;5.010;2022-11-15T15:22:44;100094.22;;;15.28
24714;BMP280;12820;51.580;5.010;2022-11-15T15:27:46;100097.91;;;15.21
24714;BMP280;12820;51.580;5.010;2022-11-15T15:32:48;100088.06;;;15.15
24714;BMP280;12820;51.580;5.010;2022-11-15T15:37:54;100089.13;;;15.10
24714;BMP280;12820;51.580;5.010;2022-11-15T15:42:59;100089.41;;;15.04
24714;BMP280;12820;51.580;5.010;2022-11-15T15:48:02;100082.91;;;14.98
24714;BMP280;12820;51.580;5.010;2022-11-15T16:00:30;100082.75;;;14.82
24714;BMP280;12820;51.580;5.010;2022-11-15T16:06:00;100079.75;;;14.74
24714;BMP280;12820;51.580;5.010;2022-11-15T16:11:02;100066.66;;;14.65
24714;BMP280;12820;51.580;5.010;2022-11-15T16:16:07;100072.84;;;14.58
24714;BMP280;12820;51.580;5.010;2022-11-15T16:21:10;100074.81;;;14.52
24714;BMP280;12820;51.580;5.010;2022-11-15T16:26:21;100076.78;;;14.45
24714;BMP280;12820;51.580;5.010;2022-11-15T16:31:24;100067.78;;;14.39
24714;BMP280;12820;51.580;5.010;2022-11-15T16:36:26;100058.00;;;14.31
24714;BMP280;12820;51.580;5.010;2022-11-15T16:41:31;100063.31;;;14.25
24714;BMP280;12820;51.580;5.010;2022-11-15T16:46:32;100058.50;;;14.20
24714;BMP280;12820;51.580;5.010;2022-11-15T16:51:34;100064.59;;;14.14
24714;BMP280;12820;51.580;5.010;2022-11-15T16:56:35;100061.44;;;14.09
24714;BMP280;12820;51.580;5.010;2022-11-15T17:01:37;100058.22;;;14.06
24714;BMP280;12820;51.580;5.010;2022-11-15T17:06:47;100052.53;;;14.01
24714;BMP280;12820;51.580;5.010;2022-11-15T17:11:49;100051.00;;;13.97
24714;BMP280;12820;51.580;5.010;2022-11-15T17:16:51;100038.53;;;13.94
24714;BMP280;12820;51.580;5.010;2022-11-15T17:21:57;100043.72;;;13.90
24714;BMP280;12820;51.580;5.010;2022-11-15T17:26:59;100031.28;;;13.86
24714;BMP280;12820;51.580;5.010;2022-11-15T17:32:01;100032.28;;;13.82
24714;BMP280;12820;51.580;5.010;2022-11-15T17:37:03;100030.69;;;13.79
24714;BMP280;12820;51.580;5.010;2022-11-15T17:42:04;100024.91;;;13.76
24714;BMP280;12820;51.580;5.010;2022-11-15T17:47:06;100030.09;;;13.73
24714;BMP280;12820;51.580;5.010;2022-11-15T17:52:08;100018.47;;;13.69
24714;BMP280;12820;51.580;5.010;2022-11-15T17:57:10;100026.91;;;13.68
24714;BMP280;12820;51.580;5.010;2022-11-15T18:02:12;100011.00;;;13.66
24714;BMP280;12820;51.580;5.010;2022-11-15T18:07:14;100005.19;;;13.64
24714;BMP280;12820;51.580;5.010;2022-11-15T18:12:16;100000.16;;;13.64
24714;BMP280;12820;51.580;5.010;2022-11-15T18:18:00;99998.50;;;13.63
24714;BMP280;12820;51.580;5.010;2022-11-15T18:23:03;99999.56;;;13.58
24714;BMP280;12820;51.580;5.010;2022-11-15T18:28:06;100000.50;;;13.55
24714;BMP280;12820;51.580;5.010;2022-11-15T18:33:08;99998.09;;;13.52
24714;BMP280;12820;51.580;5.010;2022-11-15T18:38:10;99994.00;;;13.50
24714;BMP280;12820;51.580;5.010;2022-11-15T18:43:13;99984.78;;;13.49
24714;BMP280;12820;51.580;5.010;2022-11-15T18:48:15;99989.00;;;13.49
24714;BMP280;12820;51.580;5.010;2022-11-15T18:53:18;99978.91;;;13.49
24714;BMP280;12820;51.580;5.010;2022-11-15T18:58:25;99990.63;;;13.50
24714;BMP280;12820;51.580;5.010;2022-11-15T19:03:30;99981.38;;;13.50
24714;BMP280;12820;51.580;5.010;2022-11-15T19:08:35;99982.19;;;13.50
24714;BMP280;12820;51.580;5.010;2022-11-15T19:13:38;99972.09;;;13.50
24714;BMP280;12820;51.580;5.010;2022-11-15T19:18:41;99971.28;;;13.50
24714;BMP280;12820;51.580;5.010;2022-11-15T19:23:44;99964.44;;;13.52
24714;BMP280;12820;51.580;5.010;2022-11-15T19:28:52;99961.13;;;13.51
24714;BMP280;12820;51.580;5.010;2022-11-15T19:34:03;99962.75;;;13.52
24714;BMP280;12820;51.580;5.010;2022-11-15T19:39:07;99956.00;;;13.53
24714;BMP280;12820;51.580;5.010;2022-11-15T19:44:11;99952.59;;;13.54
24714;BMP280;12820;51.580;5.010;2022-11-15T19:49:14;99956.78;;;13.55
24714;BMP280;12820;51.580;5.010;2022-11-15T19:54:16;99959.25;;;13.56
24714;BMP280;12820;51.580;5.010;2022-11-15T19:59:19;99940.66;;;13.57
24714;BMP280;12820;51.580;5.010;2022-11-15T20:04:22;99945.66;;;13.59
24714;BMP280;12820;51.580;5.010;2022-11-15T20:09:24;99926.28;;;13.59
24714;BMP280;12820;51.580;5.010;2022-11-15T20:14:26;99926.28;;;13.59
24714;BMP280;12820;51.580;5.010;2022-11-15T20:19:30;99925.41;;;13.60
24714;BMP280;12820;51.580;5.010;2022-11-15T20:24:32;99922.91;;;13.60
24714;BMP280;12820;51.580;5.010;2022-11-15T20:29:34;99922.00;;;13.61
24714;BMP280;12820;51.580;5.010;2022-11-15T20:34:36;99925.34;;;13.62
24714;BMP280;12820;51.580;5.010;2022-11-15T20:39:38;99916.94;;;13.61
24714;BMP280;12820;51.580;5.010;2022-11-15T20:44:40;99926.16;;;13.62
24714;BMP280;12820;51.580;5.010;2022-11-15T20:49:43;99931.09;;;13.65
24714;BMP280;12820;51.580;5.010;2022-11-15T20:54:45;99926.06;;;13.65
24714;BMP280;12820;51.580;5.010;2022-11-15T20:59:47;99926.88;;;13.66
24714;BMP280;12820;51.580;5.010;2022-11-15T21:04:50;99918.34;;;13.68
24714;BMP280;12820;51.580;5.010;2022-11-15T21:09:53;99908.94;;;13.71
24714;BMP280;12820;51.580;5.010;2022-11-15T21:15:13;99896.31;;;13.71
24714;BMP280;12820;51.580;5.010;2022-11-15T21:20:16;99883.63;;;13.73
24714;BMP280;12820;51.580;5.010;2022-11-15T21:25:18;99895.38;;;13.74
24714;BMP280;12820;51.580;5.010;2022-11-15T21:30:20;99882.69;;;13.75
24714;BMP280;12820;51.580;5.010;2022-11-15T21:35:22;99880.09;;;13.77
24714;BMP280;12820;51.580;5.010;2022-11-15T21:40:24;99864.06;;;13.78
24714;BMP280;12820;51.580;5.010;2022-11-15T21:45:27;99869.06;;;13.79
24714;BMP280;12820;51.580;5.010;2022-11-15T21:50:29;99866.47;;;13.81
24714;BMP280;12820;51.580;5.010;2022-11-15T21:55:31;99862.25;;;13.81
24714;BMP280;12820;51.580;5.010;2022-11-15T22:00:33;99857.19;;;13.81
24714;BMP280;12820;51.580;5.010;2022-11-15T22:06:01;99853.81;;;13.82
24714;BMP280;12820;51.580;5.010;2022-11-15T22:11:03;99843.69;;;13.82
24714;BMP280;12820;51.580;5.010;2022-11-15T22:16:06;99827.72;;;13.82
24714;BMP280;12820;51.580;5.010;2022-11-15T22:21:10;99828.59;;;13.81
24714;BMP280;12820;51.580;5.010;2022-11-15T22:26:15;99828.59;;;13.81
24714;BMP280;12820;51.580;5.010;2022-11-15T22:31:23;99823.56;;;13.81
24714;BMP280;12820;51.580;5.010;2022-11-15T22:36:26;99822.69;;;13.82
24714;BMP280;12820;51.580;5.010;2022-11-15T22:41:43;99817.63;;;13.82
24714;BMP280;12820;51.580;5.010;2022-11-15T22:46:45;99813.41;;;13.82
24714;BMP280;12820;51.580;5.010;2022-11-15T22:51:48;99807.53;;;13.82
24714;BMP280;12820;51.580;5.010;2022-11-15T22:56:50;99808.34;;;13.82
24714;BMP280;12820;51.580;5.010;2022-11-15T23:01:52;99815.09;;;13.82
24714;BMP280;12820;51.580;5.010;2022-11-15T23:06:55;99813.41;;;13.82
24714;BMP280;12820;51.580;5.010;2022-11-15T23:11:57;99817.63;;;13.82
24714;BMP280;12820;51.580;5.010;2022-11-15T23:17:17;99811.69;;;13.83
24714;BMP280;12820;51.580;5.010;2022-11-15T23:22:19;99799.00;;;13.84
24714;BMP280;12820;51.580;5.010;2022-11-15T23:27:40;99800.72;;;13.84
24714;BMP280;12820;51.580;5.010;2022-11-15T23:32:42;99795.66;;;13.84
24714;BMP280;12820;51.580;5.010;2022-11-15T23:38:03;99804.06;;;13.84
24714;BMP280;12820;51.580;5.010;2022-11-15T23:43:05;99796.50;;;13.84
24714;BMP280;12820;51.580;5.010;2022-11-15T23:48:07;99786.28;;;13.86
24714;BMP280;12820;51.580;5.010;2022-11-15T23:53:09;99793.88;;;13.86
24714;BMP280;12820;51.580;5.010;2022-11-15T23:58:11;99807.41;;;13.85
